sensor_id;sensor_type;location;lat;lon;timestamp;P1;durP1;ratioP1;P2;durP2;ratioP2
73841;SDS011;62184;52.006;5.924;2023-10-13T00:00:33;8.75;;;8.15;;
73841;SDS011;62184;52.006;5.924;2023-10-13T00:03:03;9.00;;;8.40;;
73841;SDS011;62184;52.006;5.924;2023-10-13T00:05:30;9.10;;;8.50;;
73841;SDS011;62184;52.006;5.924;2023-10-13T00:07:59;9.15;;;8.55;;
73841;SDS011;62184;52.006;5.924;2023-10-13T00:10:28;9.40;;;8.75;;
73841;SDS011;62184;52.006;5.924;2023-10-13T00:12:56;9.20;;;8.60;;
73841;SDS011;62184;52.006;5.924;2023-10-13T00:15:23;9.00;;;8.40;;
73841;SDS011;62184;52.006;5.924;2023-10-13T00:17:55;9.10;;;8.50;;
73841;SDS011;62184;52.006;5.924;2023-10-13T00:20:24;8.90;;;8.30;;
73841;SDS011;62184;52.006;5.924;2023-10-13T00:22:50;8.80;;;8.20;;
73841;SDS011;62184;52.006;5.924;2023-10-13T00:25:18;8.90;;;8.30;;
73841;SDS011;62184;52.006;5.924;2023-10-13T00:27:45;8.90;;;8.30;;
73841;SDS011;62184;52.006;5.924;2023-10-13T00:30:11;8.90;;;8.30;;
73841;SDS011;62184;52.006;5.924;2023-10-13T00:32:38;8.93;;;8.33;;
73841;SDS011;62184;52.006;5.924;2023-10-13T00:35:04;9.00;;;8.40;;
73841;SDS011;62184;52.006;5.924;2023-10-13T00:37:34;8.70;;;8.10;;
73841;SDS011;62184;52.006;5.924;2023-10-13T00:40:00;9.10;;;8.50;;
73841;SDS011;62184;52.006;5.924;2023-10-13T00:42:29;8.98;;;8.38;;
73841;SDS011;62184;52.006;5.924;2023-10-13T00:44:55;9.20;;;8.60;;
73841;SDS011;62184;52.006;5.924;2023-10-13T00:47:22;9.02;;;8.43;;
73841;SDS011;62184;52.006;5.924;2023-10-13T00:49:51;9.00;;;8.40;;
73841;SDS011;62184;52.006;5.924;2023-10-13T00:52:17;9.10;;;8.50;;
73841;SDS011;62184;52.006;5.924;2023-10-13T00:54:47;9.10;;;8.50;;
73841;SDS011;62184;52.006;5.924;2023-10-13T00:57:14;9.35;;;8.68;;
73841;SDS011;62184;52.006;5.924;2023-10-13T00:59:42;9.40;;;8.80;;
73841;SDS011;62184;52.006;5.924;2023-10-13T01:02:08;9.10;;;8.50;;
73841;SDS011;62184;52.006;5.924;2023-10-13T01:04:35;9.40;;;8.80;;
73841;SDS011;62184;52.006;5.924;2023-10-13T01:07:01;9.07;;;8.48;;
73841;SDS011;62184;52.006;5.924;2023-10-13T01:09:28;8.90;;;8.30;;
73841;SDS011;62184;52.006;5.924;2023-10-13T01:11:57;9.05;;;8.45;;
73841;SDS011;62184;52.006;5.924;2023-10-13T01:14:23;8.90;;;8.30;;
73841;SDS011;62184;52.006;5.924;2023-10-13T01:16:49;9.00;;;8.40;;
73841;SDS011;62184;52.006;5.924;2023-10-13T01:19:16;8.73;;;8.13;;
73841;SDS011;62184;52.006;5.924;2023-10-13T01:21:43;8.80;;;8.20;;
73841;SDS011;62184;52.006;5.924;2023-10-13T01:24:12;8.23;;;7.63;;
73841;SDS011;62184;52.006;5.924;2023-10-13T01:26:38;7.80;;;7.30;;
73841;SDS011;62184;52.006;5.924;2023-10-13T01:29:05;8.07;;;7.57;;
73841;SDS011;62184;52.006;5.924;2023-10-13T01:31:32;8.20;;;7.60;;
73841;SDS011;62184;52.006;5.924;2023-10-13T01:33:59;8.13;;;7.60;;
73841;SDS011;62184;52.006;5.924;2023-10-13T01:36:26;8.20;;;7.60;;
73841;SDS011;62184;52.006;5.924;2023-10-13T01:38:53;8.00;;;7.40;;
73841;SDS011;62184;52.006;5.924;2023-10-13T01:41:22;8.50;;;7.90;;
73841;SDS011;62184;52.006;5.924;2023-10-13T01:43:51;8.25;;;7.65;;
73841;SDS011;62184;52.006;5.924;2023-10-13T01:46:17;8.52;;;7.93;;
73841;SDS011;62184;52.006;5.924;2023-10-13T01:48:43;8.25;;;7.65;;
73841;SDS011;62184;52.006;5.924;2023-10-13T01:51:10;8.00;;;7.50;;
73841;SDS011;62184;52.006;5.924;2023-10-13T01:53:37;8.25;;;7.65;;
73841;SDS011;62184;52.006;5.924;2023-10-13T01:56:04;8.20;;;7.60;;
73841;SDS011;62184;52.006;5.924;2023-10-13T01:58:34;8.18;;;7.60;;
73841;SDS011;62184;52.006;5.924;2023-10-13T02:01:00;8.40;;;7.80;;
73841;SDS011;62184;52.006;5.924;2023-10-13T02:03:27;8.20;;;7.60;;
73841;SDS011;62184;52.006;5.924;2023-10-13T02:05:54;8.40;;;7.80;;
73841;SDS011;62184;52.006;5.924;2023-10-13T02:08:21;8.30;;;7.70;;
73841;SDS011;62184;52.006;5.924;2023-10-13T02:10:50;8.65;;;8.05;;
73841;SDS011;62184;52.006;5.924;2023-10-13T02:13:17;8.50;;;7.90;;
73841;SDS011;62184;52.006;5.924;2023-10-13T02:15:48;8.43;;;7.82;;
73841;SDS011;62184;52.006;5.924;2023-10-13T02:18:19;8.45;;;7.85;;
73841;SDS011;62184;52.006;5.924;2023-10-13T02:20:46;8.20;;;7.60;;
73841;SDS011;62184;52.006;5.924;2023-10-13T02:23:14;8.20;;;7.60;;
73841;SDS011;62184;52.006;5.924;2023-10-13T02:25:40;8.40;;;7.70;;
73841;SDS011;62184;52.006;5.924;2023-10-13T02:28:07;8.55;;;7.95;;
73841;SDS011;62184;52.006;5.924;2023-10-13T02:30:36;8.63;;;8.02;;
73841;SDS011;62184;52.006;5.924;2023-10-13T02:33:06;8.65;;;8.05;;
73841;SDS011;62184;52.006;5.924;2023-10-13T02:35:33;8.60;;;8.00;;
73841;SDS011;62184;52.006;5.924;2023-10-13T02:38:00;8.68;;;8.07;;
73841;SDS011;62184;52.006;5.924;2023-10-13T02:40:26;8.63;;;8.02;;
73841;SDS011;62184;52.006;5.924;2023-10-13T02:42:59;8.60;;;8.00;;
73841;SDS011;62184;52.006;5.924;2023-10-13T02:45:25;8.75;;;8.15;;
73841;SDS011;62184;52.006;5.924;2023-10-13T02:47:51;8.70;;;8.10;;
73841;SDS011;62184;52.006;5.924;2023-10-13T02:50:20;8.73;;;8.13;;
73841;SDS011;62184;52.006;5.924;2023-10-13T02:52:47;8.07;;;7.50;;
73841;SDS011;62184;52.006;5.924;2023-10-13T02:55:13;8.30;;;7.70;;
73841;SDS011;62184;52.006;5.924;2023-10-13T02:57:41;8.15;;;7.55;;
73841;SDS011;62184;52.006;5.924;2023-10-13T03:00:08;8.30;;;7.70;;
73841;SDS011;62184;52.006;5.924;2023-10-13T03:02:35;8.30;;;7.70;;
73841;SDS011;62184;52.006;5.924;2023-10-13T03:05:01;8.23;;;7.63;;
73841;SDS011;62184;52.006;5.924;2023-10-13T03:07:30;8.50;;;7.90;;
73841;SDS011;62184;52.006;5.924;2023-10-13T03:09:57;8.10;;;7.60;;
73841;SDS011;62184;52.006;5.924;2023-10-13T03:12:27;8.60;;;8.00;;
73841;SDS011;62184;52.006;5.924;2023-10-13T03:14:53;8.70;;;8.10;;
73841;SDS011;62184;52.006;5.924;2023-10-13T03:17:19;8.70;;;8.10;;
73841;SDS011;62184;52.006;5.924;2023-10-13T03:19:46;8.60;;;8.00;;
73841;SDS011;62184;52.006;5.924;2023-10-13T03:22:13;8.93;;;8.32;;
73841;SDS011;62184;52.006;5.924;2023-10-13T03:24:42;8.82;;;8.23;;
73841;SDS011;62184;52.006;5.924;2023-10-13T03:27:09;8.40;;;7.80;;
73841;SDS011;62184;52.006;5.924;2023-10-13T03:29:36;8.60;;;8.00;;
73841;SDS011;62184;52.006;5.924;2023-10-13T03:32:04;8.38;;;7.78;;
73841;SDS011;62184;52.006;5.924;2023-10-13T03:34:31;7.90;;;7.40;;
73841;SDS011;62184;52.006;5.924;2023-10-13T03:36:57;7.85;;;7.35;;
73841;SDS011;62184;52.006;5.924;2023-10-13T03:39:24;7.40;;;6.90;;
73841;SDS011;62184;52.006;5.924;2023-10-13T03:41:53;7.70;;;7.20;;
73841;SDS011;62184;52.006;5.924;2023-10-13T03:44:19;7.82;;;7.32;;
73841;SDS011;62184;52.006;5.924;2023-10-13T03:46:46;7.87;;;7.30;;
73841;SDS011;62184;52.006;5.924;2023-10-13T03:49:12;7.40;;;6.90;;
73841;SDS011;62184;52.006;5.924;2023-10-13T03:51:39;7.63;;;7.13;;
73841;SDS011;62184;52.006;5.924;2023-10-13T03:54:05;7.55;;;7.05;;
73841;SDS011;62184;52.006;5.924;2023-10-13T03:56:32;7.60;;;7.10;;
73841;SDS011;62184;52.006;5.924;2023-10-13T03:59:01;7.30;;;6.80;;
73841;SDS011;62184;52.006;5.924;2023-10-13T04:01:27;7.40;;;6.90;;
73841;SDS011;62184;52.006;5.924;2023-10-13T04:03:54;7.70;;;7.20;;
73841;SDS011;62184;52.006;5.924;2023-10-13T04:06:20;7.90;;;7.30;;
73841;SDS011;62184;52.006;5.924;2023-10-13T04:08:46;8.10;;;7.60;;
73841;SDS011;62184;52.006;5.924;2023-10-13T04:11:13;7.85;;;7.35;;
73841;SDS011;62184;52.006;5.924;2023-10-13T04:13:45;8.02;;;7.53;;
73841;SDS011;62184;52.006;5.924;2023-10-13T04:16:15;7.90;;;7.40;;
73841;SDS011;62184;52.006;5.924;2023-10-13T04:18:41;8.20;;;7.70;;
73841;SDS011;62184;52.006;5.924;2023-10-13T04:21:08;8.15;;;7.65;;
73841;SDS011;62184;52.006;5.924;2023-10-13T04:23:34;7.80;;;7.30;;
73841;SDS011;62184;52.006;5.924;2023-10-13T04:26:07;8.23;;;7.63;;
73841;SDS011;62184;52.006;5.924;2023-10-13T04:28:33;8.77;;;8.18;;
73841;SDS011;62184;52.006;5.924;2023-10-13T04:30:59;8.02;;;7.53;;
73841;SDS011;62184;52.006;5.924;2023-10-13T04:33:29;8.10;;;7.60;;
73841;SDS011;62184;52.006;5.924;2023-10-13T04:36:00;8.80;;;8.20;;
73841;SDS011;62184;52.006;5.924;2023-10-13T04:38:27;8.82;;;8.23;;
73841;SDS011;62184;52.006;5.924;2023-10-13T04:40:54;9.63;;;9.03;;
73841;SDS011;62184;52.006;5.924;2023-10-13T04:43:20;8.10;;;7.60;;
73841;SDS011;62184;52.006;5.924;2023-10-13T04:45:46;8.52;;;7.93;;
73841;SDS011;62184;52.006;5.924;2023-10-13T04:48:13;7.90;;;7.40;;
73841;SDS011;62184;52.006;5.924;2023-10-13T04:50:43;8.75;;;8.15;;
73841;SDS011;62184;52.006;5.924;2023-10-13T04:53:12;8.27;;;7.78;;
73841;SDS011;62184;52.006;5.924;2023-10-13T04:55:39;8.65;;;8.05;;
73841;SDS011;62184;52.006;5.924;2023-10-13T04:58:05;9.20;;;8.60;;
73841;SDS011;62184;52.006;5.924;2023-10-13T05:00:32;9.00;;;8.40;;
73841;SDS011;62184;52.006;5.924;2023-10-13T05:02:58;9.23;;;8.63;;
73841;SDS011;62184;52.006;5.924;2023-10-13T05:05:25;9.88;;;9.27;;
73841;SDS011;62184;52.006;5.924;2023-10-13T05:07:57;4.07;;;3.67;;
73841;SDS011;62184;52.006;5.924;2023-10-13T05:10:25;4.00;;;3.60;;
73841;SDS011;62184;52.006;5.924;2023-10-13T05:12:57;3.85;;;3.30;;
73841;SDS011;62184;52.006;5.924;2023-10-13T05:15:24;3.40;;;2.80;;
73841;SDS011;62184;52.006;5.924;2023-10-13T05:17:50;3.50;;;2.92;;
73841;SDS011;62184;52.006;5.924;2023-10-13T05:20:16;3.80;;;3.13;;
73841;SDS011;62184;52.006;5.924;2023-10-13T05:22:45;3.60;;;3.17;;
73841;SDS011;62184;52.006;5.924;2023-10-13T05:25:14;3.80;;;3.30;;
73841;SDS011;62184;52.006;5.924;2023-10-13T05:27:40;3.80;;;3.40;;
73841;SDS011;62184;52.006;5.924;2023-10-13T05:30:07;4.23;;;3.83;;
73841;SDS011;62184;52.006;5.924;2023-10-13T05:32:35;3.80;;;3.30;;
73841;SDS011;62184;52.006;5.924;2023-10-13T05:35:03;3.70;;;3.10;;
73841;SDS011;62184;52.006;5.924;2023-10-13T05:37:31;3.63;;;3.03;;
73841;SDS011;62184;52.006;5.924;2023-10-13T05:39:57;4.03;;;3.40;;
73841;SDS011;62184;52.006;5.924;2023-10-13T05:42:26;3.72;;;3.33;;
73841;SDS011;62184;52.006;5.924;2023-10-13T05:44:52;3.70;;;3.20;;
73841;SDS011;62184;52.006;5.924;2023-10-13T05:47:19;3.70;;;3.05;;
73841;SDS011;62184;52.006;5.924;2023-10-13T05:49:45;3.60;;;3.20;;
73841;SDS011;62184;52.006;5.924;2023-10-13T05:52:12;3.80;;;3.38;;
73841;SDS011;62184;52.006;5.924;2023-10-13T05:54:38;3.70;;;3.30;;
73841;SDS011;62184;52.006;5.924;2023-10-13T05:57:04;3.67;;;3.27;;
73841;SDS011;62184;52.006;5.924;2023-10-13T05:59:34;3.60;;;3.20;;
73841;SDS011;62184;52.006;5.924;2023-10-13T06:02:02;3.65;;;3.15;;
73841;SDS011;62184;52.006;5.924;2023-10-13T06:04:29;3.60;;;3.10;;
73841;SDS011;62184;52.006;5.924;2023-10-13T06:06:55;3.70;;;3.30;;
73841;SDS011;62184;52.006;5.924;2023-10-13T06:09:22;2.10;;;0.47;;
73841;SDS011;62184;52.006;5.924;2023-10-13T06:11:49;2.00;;;0.40;;
73841;SDS011;62184;52.006;5.924;2023-10-13T06:14:15;1.80;;;0.30;;
73841;SDS011;62184;52.006;5.924;2023-10-13T06:16:44;2.08;;;0.40;;
73841;SDS011;62184;52.006;5.924;2023-10-13T06:19:11;2.00;;;0.40;;
73841;SDS011;62184;52.006;5.924;2023-10-13T06:21:37;2.10;;;0.50;;
73841;SDS011;62184;52.006;5.924;2023-10-13T06:24:04;2.05;;;0.45;;
73841;SDS011;62184;52.006;5.924;2023-10-13T06:26:32;2.80;;;0.50;;
73841;SDS011;62184;52.006;5.924;2023-10-13T06:28:58;2.30;;;0.60;;
73841;SDS011;62184;52.006;5.924;2023-10-13T06:31:25;2.17;;;0.40;;
73841;SDS011;62184;52.006;5.924;2023-10-13T06:33:54;1.97;;;0.50;;
73841;SDS011;62184;52.006;5.924;2023-10-13T06:36:20;2.25;;;0.60;;
73841;SDS011;62184;52.006;5.924;2023-10-13T06:38:47;2.10;;;0.40;;
73841;SDS011;62184;52.006;5.924;2023-10-13T06:41:13;2.17;;;0.47;;
73841;SDS011;62184;52.006;5.924;2023-10-13T06:43:42;2.13;;;0.53;;
73841;SDS011;62184;52.006;5.924;2023-10-13T06:46:09;2.20;;;0.50;;
73841;SDS011;62184;52.006;5.924;2023-10-13T06:48:35;2.15;;;0.50;;
73841;SDS011;62184;52.006;5.924;2023-10-13T06:51:04;2.50;;;0.70;;
73841;SDS011;62184;52.006;5.924;2023-10-13T06:53:31;2.20;;;0.50;;
73841;SDS011;62184;52.006;5.924;2023-10-13T06:55:57;2.40;;;0.45;;
73841;SDS011;62184;52.006;5.924;2023-10-13T06:58:24;2.10;;;0.47;;
73841;SDS011;62184;52.006;5.924;2023-10-13T07:00:51;1.97;;;0.40;;
73841;SDS011;62184;52.006;5.924;2023-10-13T07:03:17;2.00;;;0.40;;
73841;SDS011;62184;52.006;5.924;2023-10-13T07:05:44;2.25;;;0.50;;
73841;SDS011;62184;52.006;5.924;2023-10-13T07:08:14;2.17;;;0.40;;
73841;SDS011;62184;52.006;5.924;2023-10-13T07:10:46;2.20;;;0.40;;
73841;SDS011;62184;52.006;5.924;2023-10-13T07:13:13;2.00;;;0.40;;
73841;SDS011;62184;52.006;5.924;2023-10-13T07:15:40;2.33;;;0.70;;
73841;SDS011;62184;52.006;5.924;2023-10-13T07:18:06;2.10;;;0.55;;
73841;SDS011;62184;52.006;5.924;2023-10-13T07:20:33;2.08;;;0.40;;
73841;SDS011;62184;52.006;5.924;2023-10-13T07:22:59;2.20;;;0.50;;
73841;SDS011;62184;52.006;5.924;2023-10-13T07:25:28;2.30;;;0.60;;
73841;SDS011;62184;52.006;5.924;2023-10-13T07:27:54;2.20;;;0.40;;
73841;SDS011;62184;52.006;5.924;2023-10-13T07:30:21;2.20;;;0.50;;
73841;SDS011;62184;52.006;5.924;2023-10-13T07:32:47;2.22;;;0.60;;
73841;SDS011;62184;52.006;5.924;2023-10-13T07:35:14;2.30;;;0.70;;
73841;SDS011;62184;52.006;5.924;2023-10-13T07:37:43;2.65;;;0.60;;
73841;SDS011;62184;52.006;5.924;2023-10-13T07:40:10;2.40;;;0.50;;
73841;SDS011;62184;52.006;5.924;2023-10-13T07:42:39;2.00;;;0.40;;
73841;SDS011;62184;52.006;5.924;2023-10-13T07:45:06;2.07;;;0.40;;
73841;SDS011;62184;52.006;5.924;2023-10-13T07:47:33;2.20;;;0.50;;
73841;SDS011;62184;52.006;5.924;2023-10-13T07:49:59;2.20;;;0.60;;
73841;SDS011;62184;52.006;5.924;2023-10-13T07:52:26;2.28;;;0.50;;
73841;SDS011;62184;52.006;5.924;2023-10-13T07:54:52;2.40;;;0.70;;
73841;SDS011;62184;52.006;5.924;2023-10-13T07:57:18;2.30;;;0.60;;
73841;SDS011;62184;52.006;5.924;2023-10-13T07:59:47;2.17;;;0.45;;
73841;SDS011;62184;52.006;5.924;2023-10-13T08:02:14;2.40;;;0.60;;
73841;SDS011;62184;52.006;5.924;2023-10-13T08:04:40;2.28;;;0.50;;
73841;SDS011;62184;52.006;5.924;2023-10-13T08:07:07;2.40;;;0.57;;
73841;SDS011;62184;52.006;5.924;2023-10-13T08:09:33;2.77;;;0.60;;
73841;SDS011;62184;52.006;5.924;2023-10-13T08:11:59;2.40;;;0.52;;
73841;SDS011;62184;52.006;5.924;2023-10-13T08:14:26;2.53;;;0.57;;
73841;SDS011;62184;52.006;5.924;2023-10-13T08:16:55;2.80;;;0.70;;
73841;SDS011;62184;52.006;5.924;2023-10-13T08:19:22;2.33;;;0.50;;
73841;SDS011;62184;52.006;5.924;2023-10-13T08:21:50;2.50;;;0.68;;
73841;SDS011;62184;52.006;5.924;2023-10-13T08:24:16;2.30;;;0.50;;
73841;SDS011;62184;52.006;5.924;2023-10-13T08:26:43;2.45;;;0.60;;
73841;SDS011;62184;52.006;5.924;2023-10-13T08:29:10;2.55;;;0.60;;
73841;SDS011;62184;52.006;5.924;2023-10-13T08:31:36;8.20;;;0.90;;
73841;SDS011;62184;52.006;5.924;2023-10-13T08:34:05;2.57;;;0.60;;
73841;SDS011;62184;52.006;5.924;2023-10-13T08:36:31;3.05;;;1.00;;
73841;SDS011;62184;52.006;5.924;2023-10-13T08:38:58;2.45;;;0.60;;
73841;SDS011;62184;52.006;5.924;2023-10-13T08:41:24;2.20;;;0.60;;
73841;SDS011;62184;52.006;5.924;2023-10-13T08:43:51;2.20;;;0.45;;
73841;SDS011;62184;52.006;5.924;2023-10-13T08:46:21;2.67;;;1.00;;
73841;SDS011;62184;52.006;5.924;2023-10-13T08:48:48;2.20;;;0.55;;
73841;SDS011;62184;52.006;5.924;2023-10-13T08:51:17;2.17;;;0.47;;
73841;SDS011;62184;52.006;5.924;2023-10-13T08:53:45;2.40;;;0.52;;
73841;SDS011;62184;52.006;5.924;2023-10-13T08:56:13;2.20;;;0.47;;
73841;SDS011;62184;52.006;5.924;2023-10-13T08:58:39;2.40;;;0.60;;
73841;SDS011;62184;52.006;5.924;2023-10-13T09:01:07;2.60;;;0.70;;
73841;SDS011;62184;52.006;5.924;2023-10-13T09:03:34;2.47;;;0.63;;
73841;SDS011;62184;52.006;5.924;2023-10-13T09:06:00;2.60;;;0.70;;
73841;SDS011;62184;52.006;5.924;2023-10-13T09:08:29;2.83;;;0.70;;
73841;SDS011;62184;52.006;5.924;2023-10-13T09:10:57;2.60;;;0.70;;
73841;SDS011;62184;52.006;5.924;2023-10-13T09:13:24;2.53;;;0.65;;
73841;SDS011;62184;52.006;5.924;2023-10-13T09:16:08;2.47;;;0.70;;
73841;SDS011;62184;52.006;5.924;2023-10-13T09:18:36;2.75;;;0.73;;
73841;SDS011;62184;52.006;5.924;2023-10-13T09:21:02;2.28;;;0.50;;
73841;SDS011;62184;52.006;5.924;2023-10-13T09:23:31;2.45;;;0.60;;
73841;SDS011;62184;52.006;5.924;2023-10-13T09:26:04;2.40;;;0.67;;
73841;SDS011;62184;52.006;5.924;2023-10-13T09:28:31;2.38;;;0.55;;
73841;SDS011;62184;52.006;5.924;2023-10-13T09:30:57;2.60;;;0.60;;
73841;SDS011;62184;52.006;5.924;2023-10-13T09:33:24;2.60;;;0.70;;
73841;SDS011;62184;52.006;5.924;2023-10-13T09:35:52;2.25;;;0.47;;
73841;SDS011;62184;52.006;5.924;2023-10-13T09:38:19;2.60;;;0.60;;
73841;SDS011;62184;52.006;5.924;2023-10-13T09:40:48;2.67;;;0.80;;
73841;SDS011;62184;52.006;5.924;2023-10-13T09:43:14;2.40;;;0.70;;
73841;SDS011;62184;52.006;5.924;2023-10-13T09:45:43;2.23;;;0.50;;
73841;SDS011;62184;52.006;5.924;2023-10-13T09:48:12;2.50;;;0.70;;
73841;SDS011;62184;52.006;5.924;2023-10-13T09:50:40;2.13;;;0.50;;
73841;SDS011;62184;52.006;5.924;2023-10-13T09:53:09;2.20;;;0.67;;
73841;SDS011;62184;52.006;5.924;2023-10-13T09:55:38;2.28;;;0.50;;
73841;SDS011;62184;52.006;5.924;2023-10-13T09:58:13;2.40;;;0.65;;
73841;SDS011;62184;52.006;5.924;2023-10-13T10:00:44;2.50;;;0.60;;
73841;SDS011;62184;52.006;5.924;2023-10-13T10:03:16;2.65;;;0.85;;
73841;SDS011;62184;52.006;5.924;2023-10-13T10:05:42;2.35;;;0.60;;
73841;SDS011;62184;52.006;5.924;2023-10-13T10:08:25;2.30;;;0.50;;
73841;SDS011;62184;52.006;5.924;2023-10-13T10:10:56;2.03;;;0.45;;
73841;SDS011;62184;52.006;5.924;2023-10-13T10:13:39;2.23;;;0.60;;
73841;SDS011;62184;52.006;5.924;2023-10-13T10:16:18;2.20;;;0.47;;
73841;SDS011;62184;52.006;5.924;2023-10-13T10:19:03;2.30;;;0.60;;
73841;SDS011;62184;52.006;5.924;2023-10-13T10:21:33;2.42;;;0.70;;
73841;SDS011;62184;52.006;5.924;2023-10-13T10:24:00;2.30;;;0.50;;
73841;SDS011;62184;52.006;5.924;2023-10-13T10:26:27;2.38;;;0.70;;
73841;SDS011;62184;52.006;5.924;2023-10-13T10:28:56;2.90;;;0.75;;
73841;SDS011;62184;52.006;5.924;2023-10-13T10:31:31;2.20;;;0.50;;
73841;SDS011;62184;52.006;5.924;2023-10-13T10:33:57;2.30;;;0.80;;
73841;SDS011;62184;52.006;5.924;2023-10-13T10:36:28;2.35;;;0.63;;
73841;SDS011;62184;52.006;5.924;2023-10-13T10:38:55;2.38;;;0.60;;
73841;SDS011;62184;52.006;5.924;2023-10-13T10:41:26;2.90;;;0.70;;
73841;SDS011;62184;52.006;5.924;2023-10-13T10:43:56;3.10;;;1.00;;
73841;SDS011;62184;52.006;5.924;2023-10-13T10:46:25;2.40;;;0.80;;
73841;SDS011;62184;52.006;5.924;2023-10-13T10:48:55;2.40;;;0.57;;
73841;SDS011;62184;52.006;5.924;2023-10-13T10:51:22;2.50;;;0.73;;
73841;SDS011;62184;52.006;5.924;2023-10-13T10:53:48;2.30;;;0.50;;
73841;SDS011;62184;52.006;5.924;2023-10-13T10:56:17;2.45;;;0.63;;
73841;SDS011;62184;52.006;5.924;2023-10-13T10:58:48;2.42;;;0.60;;
73841;SDS011;62184;52.006;5.924;2023-10-13T11:01:18;2.55;;;0.70;;
73841;SDS011;62184;52.006;5.924;2023-10-13T11:03:52;2.53;;;0.57;;
73841;SDS011;62184;52.006;5.924;2023-10-13T11:06:19;2.40;;;0.60;;
73841;SDS011;62184;52.006;5.924;2023-10-13T11:08:46;2.75;;;0.95;;
73841;SDS011;62184;52.006;5.924;2023-10-13T11:11:12;2.78;;;1.08;;
73841;SDS011;62184;52.006;5.924;2023-10-13T11:13:41;2.67;;;0.85;;
73841;SDS011;62184;52.006;5.924;2023-10-13T11:16:08;3.63;;;1.57;;
73841;SDS011;62184;52.006;5.924;2023-10-13T11:18:37;2.60;;;0.77;;
73841;SDS011;62184;52.006;5.924;2023-10-13T11:21:03;2.60;;;0.75;;
73841;SDS011;62184;52.006;5.924;2023-10-13T11:23:30;3.47;;;1.00;;
73841;SDS011;62184;52.006;5.924;2023-10-13T11:25:56;2.80;;;0.80;;
73841;SDS011;62184;52.006;5.924;2023-10-13T11:28:23;3.20;;;0.88;;
73841;SDS011;62184;52.006;5.924;2023-10-13T11:30:49;3.38;;;1.23;;
73841;SDS011;62184;52.006;5.924;2023-10-13T11:33:16;2.50;;;0.70;;
73841;SDS011;62184;52.006;5.924;2023-10-13T11:35:47;3.40;;;0.80;;
73841;SDS011;62184;52.006;5.924;2023-10-13T11:38:14;2.60;;;0.80;;
73841;SDS011;62184;52.006;5.924;2023-10-13T11:40:41;3.08;;;1.00;;
73841;SDS011;62184;52.006;5.924;2023-10-13T11:43:07;4.90;;;0.82;;
73841;SDS011;62184;52.006;5.924;2023-10-13T11:45:34;2.70;;;0.80;;
73841;SDS011;62184;52.006;5.924;2023-10-13T11:48:00;2.70;;;1.00;;
73841;SDS011;62184;52.006;5.924;2023-10-13T11:50:26;3.30;;;1.13;;
73841;SDS011;62184;52.006;5.924;2023-10-13T11:52:55;2.78;;;0.77;;
73841;SDS011;62184;52.006;5.924;2023-10-13T11:55:22;3.20;;;1.00;;
73841;SDS011;62184;52.006;5.924;2023-10-13T11:57:48;2.77;;;0.80;;
73841;SDS011;62184;52.006;5.924;2023-10-13T12:00:15;3.03;;;1.10;;
73841;SDS011;62184;52.006;5.924;2023-10-13T12:02:43;3.00;;;1.00;;
73841;SDS011;62184;52.006;5.924;2023-10-13T12:05:09;2.67;;;0.82;;
73841;SDS011;62184;52.006;5.924;2023-10-13T12:07:36;3.60;;;1.00;;
73841;SDS011;62184;52.006;5.924;2023-10-13T12:10:05;2.85;;;1.00;;
73841;SDS011;62184;52.006;5.924;2023-10-13T12:12:32;3.88;;;0.95;;
73841;SDS011;62184;52.006;5.924;2023-10-13T12:14:59;3.53;;;0.90;;
73841;SDS011;62184;52.006;5.924;2023-10-13T12:17:26;2.70;;;0.80;;
73841;SDS011;62184;52.006;5.924;2023-10-13T12:19:54;2.58;;;0.70;;
73841;SDS011;62184;52.006;5.924;2023-10-13T12:22:20;2.67;;;0.80;;
73841;SDS011;62184;52.006;5.924;2023-10-13T12:24:47;3.43;;;1.17;;
73841;SDS011;62184;52.006;5.924;2023-10-13T12:27:16;2.97;;;1.08;;
73841;SDS011;62184;52.006;5.924;2023-10-13T12:29:42;3.00;;;1.00;;
73841;SDS011;62184;52.006;5.924;2023-10-13T12:32:08;3.00;;;1.30;;
73841;SDS011;62184;52.006;5.924;2023-10-13T12:34:35;2.90;;;0.90;;
73841;SDS011;62184;52.006;5.924;2023-10-13T12:37:01;3.17;;;1.17;;
73841;SDS011;62184;52.006;5.924;2023-10-13T12:39:28;2.80;;;0.90;;
73841;SDS011;62184;52.006;5.924;2023-10-13T12:41:54;2.80;;;1.10;;
73841;SDS011;62184;52.006;5.924;2023-10-13T12:44:24;2.93;;;1.10;;
73841;SDS011;62184;52.006;5.924;2023-10-13T12:46:50;3.40;;;1.50;;
73841;SDS011;62184;52.006;5.924;2023-10-13T12:49:17;3.10;;;1.00;;
73841;SDS011;62184;52.006;5.924;2023-10-13T12:51:43;2.70;;;0.80;;
73841;SDS011;62184;52.006;5.924;2023-10-13T12:54:10;2.85;;;0.98;;
73841;SDS011;62184;52.006;5.924;2023-10-13T12:56:36;2.70;;;0.88;;
73841;SDS011;62184;52.006;5.924;2023-10-13T12:59:02;3.45;;;1.05;;
73841;SDS011;62184;52.006;5.924;2023-10-13T13:01:31;3.05;;;1.05;;
73841;SDS011;62184;52.006;5.924;2023-10-13T13:03:58;3.80;;;1.38;;
73841;SDS011;62184;52.006;5.924;2023-10-13T13:06:25;2.88;;;1.08;;
73841;SDS011;62184;52.006;5.924;2023-10-13T13:08:52;3.35;;;1.33;;
73841;SDS011;62184;52.006;5.924;2023-10-13T13:11:19;2.83;;;1.02;;
73841;SDS011;62184;52.006;5.924;2023-10-13T13:13:46;3.50;;;1.60;;
73841;SDS011;62184;52.006;5.924;2023-10-13T13:16:12;4.50;;;1.60;;
73841;SDS011;62184;52.006;5.924;2023-10-13T13:18:41;3.10;;;1.20;;
73841;SDS011;62184;52.006;5.924;2023-10-13T13:21:08;3.33;;;1.67;;
73841;SDS011;62184;52.006;5.924;2023-10-13T13:23:34;3.83;;;1.70;;
73841;SDS011;62184;52.006;5.924;2023-10-13T13:26:00;3.15;;;1.20;;
73841;SDS011;62184;52.006;5.924;2023-10-13T13:28:27;3.58;;;1.80;;
73841;SDS011;62184;52.006;5.924;2023-10-13T13:30:53;3.50;;;1.63;;
73841;SDS011;62184;52.006;5.924;2023-10-13T13:33:20;3.10;;;1.20;;
73841;SDS011;62184;52.006;5.924;2023-10-13T13:35:49;3.17;;;1.73;;
73841;SDS011;62184;52.006;5.924;2023-10-13T13:38:18;3.80;;;1.60;;
73841;SDS011;62184;52.006;5.924;2023-10-13T13:40:45;3.17;;;1.73;;
73841;SDS011;62184;52.006;5.924;2023-10-13T13:43:11;3.05;;;1.65;;
73841;SDS011;62184;52.006;5.924;2023-10-13T13:45:37;3.47;;;2.00;;
73841;SDS011;62184;52.006;5.924;2023-10-13T13:48:04;3.70;;;2.20;;
73841;SDS011;62184;52.006;5.924;2023-10-13T13:50:32;3.50;;;2.00;;
73841;SDS011;62184;52.006;5.924;2023-10-13T13:53:01;3.30;;;2.28;;
73841;SDS011;62184;52.006;5.924;2023-10-13T13:55:27;3.60;;;2.40;;
73841;SDS011;62184;52.006;5.924;2023-10-13T13:57:59;3.67;;;2.50;;
73841;SDS011;62184;52.006;5.924;2023-10-13T14:00:26;3.45;;;2.63;;
73841;SDS011;62184;52.006;5.924;2023-10-13T14:02:52;3.83;;;2.67;;
73841;SDS011;62184;52.006;5.924;2023-10-13T14:05:19;3.70;;;3.20;;
73841;SDS011;62184;52.006;5.924;2023-10-13T14:07:45;3.90;;;3.30;;
73841;SDS011;62184;52.006;5.924;2023-10-13T14:10:14;4.18;;;3.78;;
73841;SDS011;62184;52.006;5.924;2023-10-13T14:12:42;5.20;;;4.80;;
73841;SDS011;62184;52.006;5.924;2023-10-13T14:15:09;5.60;;;5.13;;
73841;SDS011;62184;52.006;5.924;2023-10-13T14:17:36;6.85;;;6.35;;
73841;SDS011;62184;52.006;5.924;2023-10-13T14:20:02;7.60;;;7.10;;
73841;SDS011;62184;52.006;5.924;2023-10-13T14:22:30;7.10;;;6.60;;
73841;SDS011;62184;52.006;5.924;2023-10-13T14:24:56;7.88;;;7.28;;
73841;SDS011;62184;52.006;5.924;2023-10-13T14:27:25;8.50;;;7.90;;
73841;SDS011;62184;52.006;5.924;2023-10-13T14:29:51;9.30;;;8.70;;
73841;SDS011;62184;52.006;5.924;2023-10-13T14:32:25;10.57;;;9.93;;
73841;SDS011;62184;52.006;5.924;2023-10-13T14:34:52;11.20;;;10.50;;
73841;SDS011;62184;52.006;5.924;2023-10-13T14:37:18;11.60;;;10.90;;
73841;SDS011;62184;52.006;5.924;2023-10-13T14:39:44;11.57;;;10.88;;
73841;SDS011;62184;52.006;5.924;2023-10-13T14:42:11;11.88;;;11.18;;
73841;SDS011;62184;52.006;5.924;2023-10-13T14:44:40;11.73;;;11.03;;
73841;SDS011;62184;52.006;5.924;2023-10-13T14:47:06;12.38;;;11.57;;
73841;SDS011;62184;52.006;5.924;2023-10-13T14:49:32;12.55;;;11.80;;